Time;durP1;ratioP1;P1;durP2;ratioP2;P2;SDS_P1;SDS_P2;PMS_P1;PMS_P2;Temp;Humidity;BMP_temperature;BMP_pressure;BME280_temperature;BME280_humidity;BME280_pressure;Samples;Min_cycle;Max_cycle;Signal;HPM_P1;HPM_P2
2021/12/12 00:00:49;;;;;;;0.00;0.00;;;2.70;99.90;;;;;;5077064;28;20044;-65
2021/12/12 00:03:31;;;;;;;0.00;0.00;;;2.80;99.90;;;;;;5071457;28;20060;-65
2021/12/12 00:05:57;;;;;;;0.10;0.10;;;2.80;99.90;;;;;;5064113;28;20032;-65
2021/12/12 00:08:24;;;;;;;0.00;0.00;;;2.80;99.90;;;;;;5057160;28;20059;-65
2021/12/12 00:11:01;;;;;;;0.00;0.00;;;2.80;99.90;;;;;;5057299;28;20803;-65
2021/12/12 00:13:35;;;;;;;0.38;0.30;;;2.90;99.90;;;;;;5073571;28;20092;-64
2021/12/12 00:16:01;;;;;;;0.73;0.45;;;2.80;99.90;;;;;;5056833;28;20072;-64
2021/12/12 00:18:27;;;;;;;0.00;0.00;;;2.80;99.90;;;;;;5058796;28;20959;-64
2021/12/12 00:20:54;;;;;;;0.00;0.00;;;2.80;99.90;;;;;;5056835;28;20127;-64
2021/12/12 00:23:20;;;;;;;0.05;0.05;;;2.90;99.90;;;;;;5058621;28;20099;-64
2021/12/12 00:25:50;;;;;;;1.17;1.10;;;3.00;99.90;;;;;;5057431;28;20044;-64
2021/12/12 00:28:19;;;;;;;0.00;0.00;;;2.90;99.90;;;;;;5058062;28;20043;-64
2021/12/12 00:30:48;;;;;;;0.70;0.57;;;2.90;99.90;;;;;;5057191;28;20051;-64
2021/12/12 00:33:15;;;;;;;0.28;0.28;;;2.90;99.90;;;;;;5089897;28;20083;-64
2021/12/12 00:35:41;;;;;;;3.17;3.05;;;2.90;99.90;;;;;;5058148;28;20033;-64
2021/12/12 00:38:18;;;;;;;0.00;0.00;;;2.90;99.90;;;;;;5058033;28;20105;-63
2021/12/12 00:40:48;;;;;;;0.10;0.10;;;2.90;99.90;;;;;;5056986;28;20105;-63
2021/12/12 00:43:23;;;;;;;0.00;0.00;;;2.90;99.90;;;;;;5058033;28;20048;-64
2021/12/12 00:45:49;;;;;;;;;;;2.90;99.90;;;;;;5090236;28;20063;-64
2021/12/12 00:48:15;;;;;;;0.00;0.00;;;2.90;99.90;;;;;;5057000;28;19963;-64
2021/12/12 00:50:43;;;;;;;0.10;0.10;;;2.90;99.90;;;;;;5057660;28;20102;-63
2021/12/12 00:53:12;;;;;;;0.00;0.00;;;3.40;99.90;;;;;;5058149;28;20586;-66
2021/12/12 00:55:40;;;;;;;0.00;0.00;;;2.90;99.90;;;;;;5058009;28;20045;-66
2021/12/12 00:58:07;;;;;;;0.00;0.00;;;2.90;99.90;;;;;;5056820;28;20158;-64
2021/12/12 01:00:37;;;;;;;0.15;0.15;;;2.90;99.90;;;;;;5089971;28;20120;-63
2021/12/12 01:03:06;;;;;;;0.00;0.00;;;3.00;99.90;;;;;;5059880;28;20584;-63
2021/12/12 01:05:32;;;;;;;0.20;0.20;;;2.90;99.90;;;;;;5068194;28;20158;-62
2021/12/12 01:07:58;;;;;;;1.55;1.38;;;2.90;99.90;;;;;;5078866;28;20475;-63
2021/12/12 01:10:32;;;;;;;0.40;0.40;;;2.90;99.90;;;;;;5076263;28;20040;-67
2021/12/12 01:12:59;;;;;;;0.28;0.28;;;2.90;99.90;;;;;;5075572;28;20032;-64
2021/12/12 01:15:39;;;;;;;0.00;0.00;;;2.90;99.90;;;;;;5077193;28;20083;-66
2021/12/12 01:18:16;;;;;;;0.00;0.00;;;3.00;99.90;;;;;;5077147;28;20088;-64
2021/12/12 01:20:50;;;;;;;0.47;0.47;;;2.90;99.90;;;;;;5076898;28;20101;-64
2021/12/12 01:23:26;;;;;;;0.20;0.20;;;2.80;99.90;;;;;;5075989;28;20036;-64
2021/12/12 01:25:54;;;;;;;1.45;1.20;;;3.00;99.90;;;;;;5076729;28;20286;-64
2021/12/12 01:28:25;;;;;;;2.72;0.88;;;3.00;99.90;;;;;;5077778;28;20135;-64
2021/12/12 01:30:53;;;;;;;0.00;0.00;;;3.00;99.90;;;;;;5077157;28;20044;-65
2021/12/12 01:33:32;;;;;;;0.00;0.00;;;3.00;99.90;;;;;;5077560;28;20055;-65
2021/12/12 01:36:11;;;;;;;0.00;0.00;;;3.00;99.90;;;;;;5078409;28;20056;-65
2021/12/12 01:38:52;;;;;;;0.00;0.00;;;3.00;99.90;;;;;;5077803;28;20089;-64
2021/12/12 01:41:38;;;;;;;0.20;0.20;;;3.00;99.90;;;;;;5110043;28;20050;-65
2021/12/12 01:44:10;;;;;;;0.22;0.22;;;3.00;99.90;;;;;;5064571;28;20714;-65
2021/12/12 01:46:46;;;;;;;0.00;0.00;;;3.10;99.90;;;;;;5078058;28;20047;-65
2021/12/12 01:49:24;;;;;;;0.30;0.30;;;3.10;99.90;;;;;;5077549;28;20131;-64
2021/12/12 01:51:51;;;;;;;0.20;0.20;;;3.10;99.90;;;;;;5074932;28;20063;-65
2021/12/12 01:54:22;;;;;;;0.50;0.50;;;3.10;99.90;;;;;;5079377;28;20498;-64
2021/12/12 01:56:53;;;;;;;0.00;0.00;;;3.10;99.90;;;;;;5081255;28;20083;-64
2021/12/12 01:59:24;;;;;;;0.00;0.00;;;3.10;99.90;;;;;;5079208;28;20055;-64
2021/12/12 02:01:51;;;;;;;0.00;0.00;;;3.10;99.90;;;;;;5080658;28;20331;-64
2021/12/12 02:04:33;;;;;;;0.85;0.65;;;3.10;99.90;;;;;;5073752;28;20080;-65
2021/12/12 02:07:00;;;;;;;0.10;0.10;;;3.10;99.90;;;;;;5061009;28;20931;-64
2021/12/12 02:09:26;;;;;;;0.00;0.00;;;3.20;99.90;;;;;;5033088;22;20050;-64
2021/12/12 02:11:56;;;;;;;0.00;0.00;;;3.20;99.90;;;;;;4993365;28;20129;-65
2021/12/12 02:14:23;;;;;;;0.55;0.40;;;3.20;99.90;;;;;;4994921;28;20043;-64
2021/12/12 02:16:53;;;;;;;0.00;0.00;;;3.20;99.90;;;;;;4980668;28;20050;-64
2021/12/12 02:19:29;;;;;;;0.10;0.10;;;3.20;99.90;;;;;;4981631;28;20053;-64
2021/12/12 02:22:21;;;;;;;0.00;0.00;;;3.40;99.90;;;;;;4980821;28;20049;-65
2021/12/12 02:35:48;;;;;;;0.10;0.10;;;3.30;99.90;;;;;;4980588;28;20336;-68
2021/12/12 02:38:18;;;;;;;0.20;0.20;;;3.30;99.90;;;;;;4981101;28;20105;-65
2021/12/12 02:40:54;;;;;;;0.00;0.00;;;3.30;99.90;;;;;;4981295;28;20034;-65
2021/12/12 02:43:23;;;;;;;0.00;0.00;;;3.30;99.90;;;;;;4980226;28;20112;-65
2021/12/12 02:45:54;;;;;;;0.00;0.00;;;3.30;99.90;;;;;;4979679;28;20034;-65
2021/12/12 02:48:24;;;;;;;0.00;0.00;;;3.30;99.90;;;;;;4981415;28;20089;-65
2021/12/12 02:50:51;;;;;;;0.00;0.00;;;3.30;99.90;;;;;;4978579;28;20042;-65
2021/12/12 02:53:25;;;;;;;0.00;0.00;;;3.30;99.90;;;;;;4979564;28;20070;-65
2021/12/12 02:55:59;;;;;;;0.65;0.65;;;4.20;99.90;;;;;;4979889;28;20576;-65
2021/12/12 02:58:27;;;;;;;0.17;0.17;;;4.00;99.90;;;;;;4979372;28;20058;-65
2021/12/12 03:01:16;;;;;;;0.38;0.38;;;3.30;99.90;;;;;;4979614;28;20065;-65
2021/12/12 03:03:43;;;;;;;0.00;0.00;;;3.40;99.90;;;;;;4982493;28;20054;-64
2021/12/12 03:06:11;;;;;;;0.00;0.00;;;3.40;99.90;;;;;;4984153;28;20062;-65
2021/12/12 03:08:40;;;;;;;0.00;0.00;;;3.40;99.90;;;;;;4979670;28;20057;-66
2021/12/12 03:11:05;;;;;;;2.08;1.13;;;3.40;99.90;;;;;;4979820;28;20093;-65
2021/12/12 03:13:32;;;;;;;2.83;2.40;;;3.30;99.90;;;;;;4980418;28;20125;-65
2021/12/12 03:15:58;;;;;;;0.00;0.00;;;3.40;99.90;;;;;;4980921;28;20458;-66
2021/12/12 03:18:28;;;;;;;0.00;0.00;;;3.40;99.90;;;;;;4980424;28;20125;-65
2021/12/12 03:20:58;;;;;;;0.20;0.20;;;3.40;99.90;;;;;;4978716;28;20082;-65
2021/12/12 03:23:29;;;;;;;0.88;0.88;;;4.50;99.90;;;;;;4980727;28;20130;-64
2021/12/12 03:26:05;;;;;;;0.65;0.65;;;3.50;99.90;;;;;;4980363;28;20061;-65
2021/12/12 03:28:34;;;;;;;0.30;0.30;;;3.50;99.90;;;;;;4979457;28;20054;-65
2021/12/12 03:31:05;;;;;;;0.32;0.32;;;3.50;99.90;;;;;;4995216;28;20129;-65
2021/12/12 03:33:33;;;;;;;0.00;0.00;;;3.40;99.90;;;;;;4979417;28;20050;-64
2021/12/12 03:36:02;;;;;;;0.05;0.05;;;4.20;99.90;;;;;;4978621;28;20042;-65
2021/12/12 03:38:30;;;;;;;0.13;0.13;;;3.50;99.90;;;;;;4980499;28;20049;-65
2021/12/12 03:40:59;;;;;;;0.10;0.10;;;3.50;99.90;;;;;;4980117;28;20121;-65
2021/12/12 03:43:25;;;;;;;0.10;0.10;;;3.50;99.90;;;;;;4978524;28;20054;-65
2021/12/12 03:45:51;;;;;;;0.00;0.00;;;3.50;99.90;;;;;;4979600;28;20073;-64
2021/12/12 03:48:28;;;;;;;2.45;1.23;;;3.50;99.90;;;;;;4979938;28;20038;-65
2021/12/12 03:51:03;;;;;;;0.10;0.10;;;3.60;99.90;;;;;;4977739;28;20405;-65
2021/12/12 03:53:30;;;;;;;;;;;3.50;99.90;;;;;;4980697;28;20077;-66
2021/12/12 03:55:57;;;;;;;0.65;0.65;;;3.50;99.90;;;;;;4979927;28;19964;-65
2021/12/12 03:58:23;;;;;;;0.08;0.08;;;3.50;99.90;;;;;;4976519;28;20050;-65
2021/12/12 04:01:02;;;;;;;0.08;0.08;;;3.50;99.90;;;;;;4994966;28;20031;-65
2021/12/12 04:03:28;;;;;;;0.00;0.00;;;3.60;99.90;;;;;;4984154;28;20057;-65
2021/12/12 04:05:59;;;;;;;0.00;0.00;;;3.60;99.90;;;;;;4984605;28;20054;-65
2021/12/12 04:08:27;;;;;;;0.57;0.57;;;5.00;99.90;;;;;;4979422;28;20053;-65
2021/12/12 04:10:53;;;;;;;0.20;0.20;;;4.30;99.90;;;;;;4979246;28;20058;-65
2021/12/12 04:13:19;;;;;;;0.00;0.00;;;3.60;99.90;;;;;;4979065;28;20046;-65
2021/12/12 04:15:50;;;;;;;0.15;0.15;;;3.60;99.90;;;;;;4978336;28;20459;-65
2021/12/12 04:18:21;;;;;;;0.13;0.13;;;3.70;99.90;;;;;;4979255;28;20129;-64
2021/12/12 04:20:46;;;;;;;0.00;0.00;;;3.80;99.90;;;;;;4978287;28;20136;-65
2021/12/12 04:23:21;;;;;;;0.00;0.00;;;3.80;99.90;;;;;;4977102;28;20133;-64
2021/12/12 04:25:47;;;;;;;0.15;0.15;;;3.70;99.90;;;;;;4979039;28;20769;-64
2021/12/12 04:28:14;;;;;;;0.00;0.00;;;3.80;99.90;;;;;;4978828;28;20042;-65
2021/12/12 04:30:40;;;;;;;0.00;0.00;;;3.80;99.90;;;;;;4978596;28;20051;-65
2021/12/12 04:33:06;;;;;;;2.53;0.63;;;3.80;99.90;;;;;;4978082;28;20077;-65
2021/12/12 04:35:33;;;;;;;0.00;0.00;;;3.80;99.90;;;;;;4979026;28;20073;-65
2021/12/12 04:38:00;;;;;;;0.10;0.10;;;3.90;99.90;;;;;;4977516;28;20089;-64
2021/12/12 04:40:30;;;;;;;0.20;0.20;;;3.90;99.90;;;;;;4978522;28;20157;-65
2021/12/12 04:42:57;;;;;;;0.00;0.00;;;3.80;99.90;;;;;;4979354;28;20089;-64
2021/12/12 04:45:43;;;;;;;0.00;0.00;;;3.80;99.90;;;;;;4978125;28;20339;-64
2021/12/12 04:51:07;;;;;;;0.00;0.00;;;3.80;99.90;;;;;;4978328;28;20051;-64
2021/12/12 04:53:44;;;;;;;0.10;0.10;;;3.90;99.90;;;;;;4979302;28;20050;-65
2021/12/12 04:56:17;;;;;;;0.00;0.00;;;3.80;99.90;;;;;;4979287;28;20046;-64
2021/12/12 04:58:50;;;;;;;0.00;0.00;;;3.80;99.90;;;;;;4992653;28;20131;-64
2021/12/12 05:01:54;;;;;;;0.08;0.08;;;3.90;99.90;;;;;;4979041;28;20046;-64
2021/12/12 05:04:46;;;;;;;0.00;0.00;;;3.90;99.90;;;;;;4988300;28;20120;-65
2021/12/12 05:07:34;;;;;;;0.00;0.00;;;3.80;99.90;;;;;;4977719;28;20125;-65
2021/12/12 05:10:22;;;;;;;0.00;0.00;;;3.40;99.90;;;;;;4977727;28;20068;-65
2021/12/12 05:13:06;;;;;;;0.00;0.00;;;4.00;99.90;;;;;;4978754;28;20131;-65
2021/12/12 05:15:37;;;;;;;0.43;0.43;;;4.00;99.90;;;;;;4979143;28;20053;-65
2021/12/12 05:18:16;;;;;;;0.00;0.00;;;4.00;99.90;;;;;;4978160;28;20050;-64
2021/12/12 05:20:46;;;;;;;0.00;0.00;;;5.30;99.90;;;;;;4977426;28;20417;-64
2021/12/12 05:23:15;;;;;;;0.63;0.63;;;4.10;99.90;;;;;;4993504;28;20046;-64
2021/12/12 05:25:49;;;;;;;0.00;0.00;;;4.60;99.90;;;;;;4978394;28;20137;-65
2021/12/12 05:28:18;;;;;;;0.00;0.00;;;4.20;99.90;;;;;;4978296;28;20441;-66
2021/12/12 05:30:45;;;;;;;0.08;0.08;;;4.20;99.90;;;;;;4981486;28;20046;-66
2021/12/12 05:33:14;;;;;;;0.20;0.20;;;4.20;99.90;;;;;;4981716;28;20433;-67
2021/12/12 05:35:42;;;;;;;0.00;0.00;;;6.00;99.90;;;;;;4982802;28;20031;-66
2021/12/12 05:38:09;;;;;;;0.00;0.00;;;4.20;99.90;;;;;;4982224;28;20050;-66
2021/12/12 05:40:38;;;;;;;0.00;0.00;;;4.90;99.90;;;;;;4980531;28;20057;-67
2021/12/12 05:43:05;;;;;;;0.00;0.00;;;4.20;99.90;;;;;;4981549;28;20449;-67
2021/12/12 05:45:33;;;;;;;0.13;0.13;;;4.20;99.90;;;;;;4982817;28;20623;-66
2021/12/12 05:48:00;;;;;;;0.00;0.00;;;4.20;99.90;;;;;;4996825;28;20050;-67
2021/12/12 05:50:27;;;;;;;0.08;0.08;;;4.20;99.90;;;;;;4982013;28;20053;-67
2021/12/12 05:52:54;;;;;;;0.00;0.00;;;4.20;99.90;;;;;;4981992;28;20371;-66
2021/12/12 05:55:22;;;;;;;0.05;0.05;;;4.20;99.90;;;;;;4981216;28;20787;-66
2021/12/12 05:57:56;;;;;;;0.38;0.38;;;4.40;99.90;;;;;;4980777;28;20133;-66
2021/12/12 06:00:28;;;;;;;0.10;0.10;;;4.30;99.90;;;;;;4981637;28;20047;-66
2021/12/12 06:02:54;;;;;;;0.00;0.00;;;4.30;99.90;;;;;;4984140;28;20046;-67
2021/12/12 06:05:21;;;;;;;0.00;0.00;;;4.30;99.90;;;;;;4989679;28;20046;-66
2021/12/12 06:07:48;;;;;;;0.00;0.00;;;4.30;99.90;;;;;;4981422;28;20105;-66
2021/12/12 06:10:16;;;;;;;0.40;0.40;;;5.30;99.90;;;;;;4981775;28;20054;-66
2021/12/12 06:12:43;;;;;;;0.15;0.15;;;4.30;99.90;;;;;;4980697;28;20583;-66
2021/12/12 06:15:12;;;;;;;0.00;0.00;;;4.30;99.90;;;;;;4979248;28;20097;-64
2021/12/12 06:17:39;;;;;;;0.00;0.00;;;4.30;99.90;;;;;;4981660;28;20061;-65
2021/12/12 06:20:08;;;;;;;0.40;0.40;;;4.30;99.90;;;;;;4981303;28;20101;-64
2021/12/12 06:22:34;;;;;;;1.00;0.55;;;4.40;99.90;;;;;;4979874;28;20038;-64
2021/12/12 06:25:00;;;;;;;0.00;0.00;;;4.50;99.90;;;;;;4997067;28;20065;-64
2021/12/12 06:27:26;;;;;;;0.00;0.00;;;4.40;99.90;;;;;;4981373;28;20042;-64
2021/12/12 06:29:54;;;;;;;0.10;0.10;;;4.40;99.90;;;;;;4979738;28;20050;-66
2021/12/12 06:32:21;;;;;;;0.00;0.00;;;4.40;99.90;;;;;;4981624;28;20046;-67
2021/12/12 06:34:49;;;;;;;1.42;1.42;;;4.40;99.90;;;;;;4980897;28;20092;-66
2021/12/12 06:37:15;;;;;;;0.00;0.00;;;4.40;99.90;;;;;;4980120;28;20043;-66
2021/12/12 06:39:42;;;;;;;0.00;0.00;;;4.50;99.90;;;;;;4979637;28;20053;-64
2021/12/12 06:42:10;;;;;;;0.00;0.00;;;4.50;99.90;;;;;;4981274;28;20089;-64
2021/12/12 06:44:38;;;;;;;0.28;0.25;;;4.50;99.90;;;;;;4981019;28;20057;-64
2021/12/12 06:47:09;;;;;;;0.00;0.00;;;4.50;99.90;;;;;;4979918;28;20034;-67
2021/12/12 06:49:36;;;;;;;0.00;0.00;;;4.50;99.90;;;;;;4981041;28;20201;-66
2021/12/12 06:52:09;;;;;;;0.00;0.00;;;4.50;99.90;;;;;;4981132;28;20058;-66
2021/12/12 06:54:35;;;;;;;0.40;0.40;;;4.50;99.90;;;;;;4979260;28;20046;-66
2021/12/12 06:57:06;;;;;;;0.22;0.22;;;4.80;99.90;;;;;;4979781;28;20995;-65
2021/12/12 06:59:34;;;;;;;0.00;0.00;;;4.60;99.90;;;;;;4979183;28;20077;-66
2021/12/12 07:02:01;;;;;;;0.00;0.00;;;5.10;99.90;;;;;;4979845;28;20049;-64
2021/12/12 07:04:30;;;;;;;0.00;0.00;;;4.60;99.90;;;;;;4991178;28;20444;-65
2021/12/12 07:06:58;;;;;;;0.00;0.00;;;5.70;99.90;;;;;;4980735;28;20043;-64
2021/12/12 07:09:25;;;;;;;9.23;0.98;;;4.60;99.90;;;;;;4980742;28;20062;-65
2021/12/12 07:11:52;;;;;;;0.00;0.00;;;4.60;99.90;;;;;;4979663;28;20438;-65
2021/12/12 07:14:18;;;;;;;0.00;0.00;;;4.70;99.90;;;;;;4979560;28;20050;-64
2021/12/12 07:16:45;;;;;;;0.00;0.00;;;4.60;99.90;;;;;;4995643;28;20038;-64
2021/12/12 07:19:14;;;;;;;0.00;0.00;;;4.70;99.90;;;;;;4980246;28;20092;-64
2021/12/12 07:21:41;;;;;;;0.80;0.68;;;6.00;99.90;;;;;;4979190;28;20050;-66
2021/12/12 07:24:08;;;;;;;0.00;0.00;;;4.70;99.90;;;;;;4995437;28;20105;-64
2021/12/12 07:26:34;;;;;;;0.00;0.00;;;4.70;99.90;;;;;;4980435;28;20053;-65
2021/12/12 07:29:00;;;;;;;1.00;0.90;;;4.80;99.90;;;;;;4978886;28;20050;-65
2021/12/12 07:31:31;;;;;;;0.00;0.00;;;4.80;99.90;;;;;;4978442;28;20103;-64
2021/12/12 07:34:00;;;;;;;0.00;0.00;;;5.10;99.90;;;;;;4980066;28;20046;-65
2021/12/12 07:36:27;;;;;;;0.00;0.00;;;4.80;99.90;;;;;;4980034;28;20070;-66
2021/12/12 07:38:55;;;;;;;0.00;0.00;;;4.90;99.90;;;;;;4979810;28;20674;-66
2021/12/12 07:41:25;;;;;;;0.00;0.00;;;5.50;99.90;;;;;;4978786;28;20042;-66
2021/12/12 07:43:51;;;;;;;0.00;0.00;;;4.90;99.90;;;;;;4979455;28;20042;-66
2021/12/12 07:46:18;;;;;;;0.00;0.00;;;4.90;99.90;;;;;;4979120;28;20416;-66
2021/12/12 07:48:45;;;;;;;0.00;0.00;;;4.90;99.90;;;;;;4979779;28;20042;-66
2021/12/12 07:51:12;;;;;;;0.00;0.00;;;4.90;99.90;;;;;;4979247;28;20046;-66
2021/12/12 07:53:38;;;;;;;0.00;0.00;;;5.20;99.90;;;;;;4977482;28;20083;-66
2021/12/12 07:56:04;;;;;;;0.00;0.00;;;5.00;99.90;;;;;;4979831;28;20064;-66
2021/12/12 07:58:30;;;;;;;0.00;0.00;;;5.00;99.90;;;;;;4979555;28;20038;-66
2021/12/12 08:00:59;;;;;;;0.00;0.00;;;5.00;99.90;;;;;;4979864;28;20303;-67
2021/12/12 08:03:30;;;;;;;0.00;0.00;;;5.00;99.90;;;;;;4983286;28;20278;-64
2021/12/12 08:05:56;;;;;;;0.00;0.00;;;5.10;99.90;;;;;;4984750;28;20087;-65
2021/12/12 08:08:24;;;;;;;0.00;0.00;;;5.10;99.90;;;;;;4978555;28;20050;-64
2021/12/12 08:10:50;;;;;;;0.00;0.00;;;5.00;99.90;;;;;;4978704;28;20098;-64
2021/12/12 08:13:18;;;;;;;0.00;0.00;;;5.00;99.90;;;;;;4977733;28;20097;-64
2021/12/12 08:15:45;;;;;;;0.00;0.00;;;5.10;99.90;;;;;;4979584;28;20043;-64
2021/12/12 08:18:15;;;;;;;0.00;0.00;;;5.10;99.90;;;;;;4979485;28;20081;-64
2021/12/12 08:20:43;;;;;;;0.00;0.00;;;5.20;99.90;;;;;;4978141;28;20091;-64
2021/12/12 08:23:10;;;;;;;0.10;0.10;;;5.10;99.90;;;;;;4979415;28;20054;-64
2021/12/12 08:25:37;;;;;;;0.00;0.00;;;5.20;99.90;;;;;;4978416;28;20046;-64
2021/12/12 08:28:04;;;;;;;0.00;0.00;;;5.70;99.90;;;;;;4977423;28;20042;-64
2021/12/12 08:30:32;;;;;;;0.00;0.00;;;5.60;99.90;;;;;;4980256;28;20038;-64
2021/12/12 08:32:59;;;;;;;0.13;0.13;;;6.60;99.90;;;;;;4979114;28;20050;-66
2021/12/12 08:35:27;;;;;;;0.00;0.00;;;6.70;99.90;;;;;;4979208;28;20204;-64
2021/12/12 08:37:54;;;;;;;0.10;0.10;;;5.30;99.90;;;;;;4978069;28;20058;-65
2021/12/12 08:40:37;;;;;;;0.10;0.10;;;5.20;99.90;;;;;;4978899;28;20049;-65
2021/12/12 08:43:09;;;;;;;0.00;0.00;;;5.30;99.90;;;;;;4977638;28;20054;-65
2021/12/12 08:45:39;;;;;;;0.00;0.00;;;5.30;99.90;;;;;;4979215;28;20047;-65
2021/12/12 08:48:05;;;;;;;0.00;0.00;;;5.30;99.90;;;;;;4978398;28;20056;-65
2021/12/12 08:50:34;;;;;;;0.00;0.00;;;5.30;99.90;;;;;;4978584;28;20478;-66
2021/12/12 08:53:01;;;;;;;0.00;0.00;;;5.40;99.90;;;;;;4979193;28;20042;-66
2021/12/12 08:55:34;;;;;;;0.00;0.00;;;5.30;99.90;;;;;;4977460;28;20058;-64
2021/12/12 08:58:14;;;;;;;0.00;0.00;;;5.40;99.90;;;;;;4977212;28;20121;-64
2021/12/12 09:01:00;;;;;;;0.00;0.00;;;4.70;99.90;;;;;;4978832;28;20047;-64
2021/12/12 09:03:50;;;;;;;0.00;0.00;;;5.50;99.90;;;;;;4983121;28;20049;-65
2021/12/12 09:06:19;;;;;;;0.00;0.00;;;5.50;99.90;;;;;;4981840;28;20122;-66
2021/12/12 09:09:00;;;;;;;0.00;0.00;;;5.50;99.90;;;;;;4978479;28;20062;-67
2021/12/12 09:11:31;;;;;;;0.00;0.00;;;5.50;99.90;;;;;;4978907;28;20042;-66
2021/12/12 09:14:19;;;;;;;0.20;0.20;;;5.60;99.90;;;;;;4978157;28;20093;-67
2021/12/12 09:16:49;;;;;;;0.00;0.00;;;5.60;99.90;;;;;;4978351;28;20046;-65
2021/12/12 09:19:28;;;;;;;0.00;0.00;;;5.60;99.90;;;;;;4978670;28;20046;-65
2021/12/12 09:22:08;;;;;;;0.00;0.00;;;5.60;99.90;;;;;;4977548;28;20050;-65
2021/12/12 09:24:44;;;;;;;0.00;0.00;;;5.70;99.90;;;;;;4979019;28;20081;-65
2021/12/12 09:27:17;;;;;;;0.00;0.00;;;5.90;99.90;;;;;;4977391;28;20133;-65
2021/12/12 09:30:09;;;;;;;0.00;0.00;;;5.70;99.90;;;;;;4978166;28;20042;-65
2021/12/12 09:32:58;;;;;;;0.05;0.05;;;5.70;99.90;;;;;;4977843;28;20077;-65
2021/12/12 09:35:31;;;;;;;0.00;0.00;;;5.70;99.90;;;;;;4993148;28;20058;-65
2021/12/12 09:38:12;;;;;;;0.10;0.10;;;5.70;99.90;;;;;;4976005;28;20082;-65
2021/12/12 09:41:17;;;;;;;0.00;0.00;;;7.30;99.90;;;;;;4978810;28;20325;-65
2021/12/12 09:43:55;;;;;;;0.10;0.10;;;5.80;99.90;;;;;;4977644;28;20523;-65
2021/12/12 09:46:30;;;;;;;0.00;0.00;;;6.40;99.90;;;;;;4978009;28;20038;-65
2021/12/12 09:52:04;;;;;;;0.10;0.10;;;5.90;99.90;;;;;;4978202;28;20141;-66
2021/12/12 09:54:59;;;;;;;0.00;0.00;;;5.90;99.90;;;;;;4993993;28;20049;-65
2021/12/12 09:57:46;;;;;;;0.00;0.00;;;5.90;99.90;;;;;;4977606;28;20047;-65
2021/12/12 10:00:40;;;;;;;0.00;0.00;;;5.90;99.90;;;;;;4976545;28;20038;-65
2021/12/12 10:03:26;;;;;;;0.10;0.10;;;6.00;99.90;;;;;;4980323;28;20050;-65
2021/12/12 10:06:00;;;;;;;0.00;0.00;;;6.00;99.90;;;;;;4990997;28;20038;-65
2021/12/12 10:08:34;;;;;;;0.00;0.00;;;6.00;99.90;;;;;;4997642;28;20038;-67
2021/12/12 10:11:07;;;;;;;0.32;0.32;;;6.00;99.90;;;;;;4998189;28;20060;-65
2021/12/12 10:13:47;;;;;;;0.10;0.10;;;6.00;99.90;;;;;;4997494;28;20524;-65
2021/12/12 10:16:33;;;;;;;0.00;0.00;;;6.10;99.90;;;;;;5000425;28;20074;-65
2021/12/12 10:19:18;;;;;;;1.38;0.30;;;6.20;99.90;;;;;;5001571;28;20046;-65
2021/12/12 10:21:58;;;;;;;0.00;0.00;;;6.20;99.90;;;;;;5000811;28;20042;-65
2021/12/12 10:24:37;;;;;;;0.00;0.00;;;6.20;99.90;;;;;;5001144;28;20057;-65
2021/12/12 10:27:18;;;;;;;0.10;0.10;;;6.20;99.90;;;;;;5001328;28;20046;-64
2021/12/12 10:29:56;;;;;;;0.57;0.38;;;6.30;99.90;;;;;;5000873;28;20150;-66
2021/12/12 10:32:27;;;;;;;0.00;0.00;;;6.30;99.90;;;;;;4999377;28;20049;-65
2021/12/12 10:35:01;;;;;;;0.00;0.00;;;6.30;99.90;;;;;;4982636;28;20081;-66
2021/12/12 10:37:32;;;;;;;0.00;0.00;;;6.40;99.90;;;;;;4999458;28;20042;-64
2021/12/12 10:40:06;;;;;;;0.00;0.00;;;6.40;99.90;;;;;;4999802;28;20060;-66
2021/12/12 10:42:42;;;;;;;0.00;0.00;;;6.60;99.90;;;;;;4998831;28;20046;-64
2021/12/12 10:45:31;;;;;;;0.10;0.10;;;6.50;99.90;;;;;;5001025;28;20042;-65
2021/12/12 10:48:08;;;;;;;0.10;0.10;;;6.50;99.90;;;;;;5000836;28;20444;-65
2021/12/12 10:51:08;;;;;;;0.00;0.00;;;7.10;99.90;;;;;;4999580;28;20134;-65
2021/12/12 10:53:47;;;;;;;0.00;0.00;;;6.60;99.90;;;;;;5000567;28;20042;-65
2021/12/12 10:56:36;;;;;;;0.00;0.00;;;6.60;99.90;;;;;;5000185;28;20085;-66
2021/12/12 10:59:35;;;;;;;0.00;0.00;;;6.70;99.90;;;;;;4999837;28;20057;-66
2021/12/12 11:02:06;;;;;;;0.00;0.00;;;6.80;99.90;;;;;;4987907;28;20077;-65
2021/12/12 11:04:45;;;;;;;0.00;0.00;;;7.80;99.90;;;;;;4992341;28;20132;-66
2021/12/12 11:07:35;;;;;;;0.00;0.00;;;6.90;99.90;;;;;;4979329;28;20030;-65
2021/12/12 11:10:24;;;;;;;0.00;0.00;;;7.00;99.90;;;;;;4980871;28;20759;-65
2021/12/12 11:13:07;;;;;;;0.00;0.00;;;7.00;99.90;;;;;;4980042;28;20080;-65
2021/12/12 11:15:53;;;;;;;0.00;0.00;;;7.10;99.90;;;;;;4991894;28;20577;-64
2021/12/12 11:18:25;;;;;;;0.00;0.00;;;7.20;99.90;;;;;;4999907;28;20050;-63
2021/12/12 11:21:02;;;;;;;0.00;0.00;;;7.20;99.90;;;;;;4999079;28;20132;-64
2021/12/12 11:23:35;;;;;;;0.00;0.00;;;7.30;99.90;;;;;;4999197;28;20065;-63
2021/12/12 11:26:10;;;;;;;0.00;0.00;;;7.30;99.90;;;;;;5000321;28;20045;-63
2021/12/12 11:28:43;;;;;;;0.00;0.00;;;7.30;99.90;;;;;;4998404;28;20083;-65
2021/12/12 11:31:31;;;;;;;0.00;0.00;;;7.40;99.90;;;;;;4999922;28;20041;-65
2021/12/12 11:33:57;;;;;;;0.00;0.00;;;8.70;99.90;;;;;;4997381;28;20061;-65
2021/12/12 11:36:29;;;;;;;0.85;0.20;;;7.40;99.90;;;;;;4998378;28;20673;-66
2021/12/12 11:39:17;;;;;;;0.00;0.00;;;6.80;99.90;;;;;;4999556;28;20046;-66
2021/12/12 11:42:03;;;;;;;0.10;0.10;;;7.50;99.90;;;;;;4999703;28;20068;-65
2021/12/12 11:44:41;;;;;;;0.00;0.00;;;7.60;99.90;;;;;;4999724;28;20072;-66
2021/12/12 11:47:36;;;;;;;0.35;0.35;;;7.60;99.90;;;;;;4997794;28;20096;-65
2021/12/12 11:50:14;;;;;;;0.00;0.00;;;7.60;99.90;;;;;;4977412;28;20508;-65
2021/12/12 11:52:59;;;;;;;0.00;0.00;;;7.60;99.90;;;;;;4999540;28;20060;-66
2021/12/12 11:55:24;;;;;;;0.15;0.08;;;7.60;99.90;;;;;;4998108;28;20120;-66
2021/12/12 11:57:59;;;;;;;0.00;0.00;;;7.70;99.90;;;;;;4998401;28;20151;-66
2021/12/12 12:00:30;;;;;;;;;;;7.70;99.90;;;;;;5000192;28;20054;-65
2021/12/12 12:03:32;;;;;;;0.00;0.00;;;7.70;99.90;;;;;;4993477;28;19921;-65
2021/12/12 12:06:06;;;;;;;0.00;0.00;;;7.70;99.90;;;;;;4994436;28;20046;-65
2021/12/12 12:09:16;;;;;;;0.22;0.22;;;7.80;99.90;;;;;;4999554;28;20672;-65
2021/12/12 12:12:01;;;;;;;0.00;0.00;;;7.80;99.90;;;;;;4975133;28;20061;-65
2021/12/12 12:14:37;;;;;;;0.03;0.03;;;7.80;99.90;;;;;;4998570;28;20057;-65
2021/12/12 12:17:45;;;;;;;0.10;0.10;;;8.00;99.90;;;;;;4996497;28;20049;-65
2021/12/12 12:20:42;;;;;;;0.00;0.00;;;8.00;99.90;;;;;;4990496;28;20412;-66
2021/12/12 12:23:18;;;;;;;0.00;0.00;;;8.00;99.90;;;;;;4997302;28;20061;-65
2021/12/12 12:28:56;;;;;;;0.00;0.00;;;8.00;99.90;;;;;;4997209;28;20081;-65
2021/12/12 12:31:34;;;;;;;0.00;0.00;;;8.10;99.90;;;;;;4999189;28;20133;-65
2021/12/12 12:34:37;;;;;;;0.00;0.00;;;9.40;99.90;;;;;;4998846;28;20050;-65
2021/12/12 12:37:36;;;;;;;0.00;0.00;;;8.10;99.90;;;;;;4998175;28;20069;-65
2021/12/12 12:40:40;;;;;;;0.00;0.00;;;8.10;99.90;;;;;;4999299;28;20050;-65
2021/12/12 12:43:27;;;;;;;0.00;0.00;;;8.10;99.90;;;;;;4981285;28;20055;-64
2021/12/12 12:46:14;;;;;;;0.00;0.00;;;8.00;99.90;;;;;;4985095;28;20568;-65
2021/12/12 12:49:28;;;;;;;0.00;0.00;;;8.10;99.90;;;;;;4985905;28;20066;-65
2021/12/12 12:52:35;;;;;;;0.00;0.00;;;8.10;99.90;;;;;;4948246;28;20054;-65
2021/12/12 12:55:41;;;;;;;0.00;0.00;;;8.10;99.90;;;;;;4985561;28;20093;-65
2021/12/12 12:58:31;;;;;;;0.00;0.00;;;8.10;99.90;;;;;;4979674;28;20082;-65
2021/12/12 13:01:05;;;;;;;0.00;0.00;;;8.10;99.90;;;;;;4956546;28;20067;-65
2021/12/12 13:03:57;;;;;;;0.08;0.08;;;8.10;99.90;;;;;;4984257;28;20065;-65
2021/12/12 13:07:01;;;;;;;0.00;0.00;;;8.10;99.90;;;;;;4977291;28;20057;-66
2021/12/12 13:09:35;;;;;;;0.28;0.28;;;8.10;99.90;;;;;;4992962;28;20062;-67
2021/12/12 13:12:27;;;;;;;0.00;0.00;;;9.00;99.90;;;;;;4978010;28;20069;-66
2021/12/12 13:15:19;;;;;;;0.00;0.00;;;8.10;99.90;;;;;;4978646;28;21160;-66
2021/12/12 13:18:17;;;;;;;0.00;0.00;;;8.20;99.90;;;;;;4977330;28;20061;-65
2021/12/12 13:21:21;;;;;;;0.00;0.00;;;8.30;99.90;;;;;;4977639;28;20082;-66
2021/12/12 13:24:23;;;;;;;0.00;0.00;;;8.20;99.90;;;;;;4976987;28;20065;-66
2021/12/12 13:27:08;;;;;;;0.00;0.00;;;8.30;99.90;;;;;;4980977;28;20092;-65
2021/12/12 13:30:12;;;;;;;0.00;0.00;;;8.40;99.90;;;;;;4996400;28;20096;-65
2021/12/12 13:32:51;;;;;;;0.10;0.10;;;8.30;99.90;;;;;;4997971;28;20103;-66
2021/12/12 13:35:39;;;;;;;0.00;0.00;;;8.40;99.90;;;;;;4995335;28;20061;-66
2021/12/12 13:38:17;;;;;;;0.00;0.00;;;8.40;99.90;;;;;;4996877;28;20148;-66
2021/12/12 13:41:04;;;;;;;0.00;0.00;;;8.40;99.90;;;;;;4996491;28;20077;-65
2021/12/12 13:43:52;;;;;;;0.00;0.00;;;8.40;99.90;;;;;;4995851;28;20058;-66
2021/12/12 13:46:32;;;;;;;0.00;0.00;;;8.40;99.90;;;;;;4996464;28;20792;-66
2021/12/12 13:49:23;;;;;;;0.00;0.00;;;8.40;99.90;;;;;;4997610;28;20046;-66
2021/12/12 13:52:06;;;;;;;0.00;0.00;;;8.50;99.90;;;;;;5000943;28;20127;-66
2021/12/12 13:54:41;;;;;;;0.00;0.00;;;8.50;99.90;;;;;;5000576;28;20060;-65
2021/12/12 13:57:39;;;;;;;0.00;0.00;;;8.50;99.90;;;;;;4991722;28;20437;-66